Chlef Aboubakr Belkaid International Airport

METAR DAOB TAF DAOB
3 °C
°C
-
°C
46m
Età
04:46:23
LT
03:46
UTC
0 ft

1.000

2.000

3.000

4.000

5.000

SCT 2.600
VFR
<?= Yii::t('app', 'Wind direction') ?> <?= Yii::t('app', 'of'); ?>
170°
07:47
Alba
75%
Umidità
Taglio del vento
Chiuso/Neve
Raggio visivo RWY
Condizione della RWY
Visibilità verticale
Visibilità minima
CAVOK
Tendenza
Correzione
Rapporto speciale
1019 hPa
QNH
METAR DAOB 080300Z 17004KT 9999 SCT026 03/M01 Q1019
Nubi sparse
4 kt
4 kt
04:00
VFR
6 kt
05:00
VFR
6 kt
06:00
VFR
6 kt
07:00
VFR
6 kt
08:00
VFR
6 kt
09:00
VFR
6 kt
10:00
VFR
6 kt
10 km+
Vista
No
Base nuvolosa
4 kt
Vento
metar-taf.com/DAOI

Metar-Taf.com

Decodificatore visivo

Noi e le terze parti seguiamo il tuo comportamento su internet con i cookie. Se continui, riteniamo che tu sia d'accordo con la nostra Politica sui cookie.